Danbury, CT

8:22 AM EDT on July 26, 2017 (GMT -0400)
Wooster Village | | Change Station
Active Advisory: Special Statement

Elev 472 ft 41.38 °N, 73.46 °W | Updated 9 minutes ago

Clear
Clear
59.5 °F
Feels Like 59.5 °F
N
0.0
Wind Variable Wind from SSE

Today
High -- | Low -- °F
--% Chance of Precip.
Yesterday
High -- | Low -- °F
Precip. -- in
Pressure 30.27 in
Visibility 10.0 miles
Clouds Clear
Dew Point 58 °F
Humidity 93%
Rainfall 0.00 in
Snow Depth Not available.
5:43 AM 8:16 PM
Waxing Crescent, 12% visible
METAR KDXR 261153Z 00000KT 10SM CLR 17/14 A3027 RMK AO2 SLP249 T01670139 10167 20117 51009 $
Pressure 30.27 in
Visibility 10.0 miles
Clouds Clear
Dew Point 58 °F
Humidity 93%
Rainfall 0.00 in
Snow Depth Not available.
5:43 AM 8:16 PM
Waxing Crescent, 12% visible
METAR KDXR 261153Z 00000KT 10SM CLR 17/14 A3027 RMK AO2 SLP249 T01670139 10167 20117 51009 $

Get Your Daily Forecast Email!

Thanks for signing up!

Be on the lookout for a verification email in your inbox.

You'll start receiving severe weather alerts in your inbox..

×

10-Day Weather Forecast

Almanac

Astronomy

Jul. 26, 2017 Rise Set
Actual Time
Civil Twilight
Nautical Twilight
Astronomical Twilight
Moon
Length of Visible Light
Length of Day
Tomorrow will be .
, % of the Moon is Illuminated

Today's Extremes

State Highs State Lows

Community

WunderPhotos

Category 6

Welcome to Category 6. This is the collective home for Weather Underground's featured writeups by Dr. Jeff Masters (right), Bob Henson (left), Chris Burt, and other regular contributors.

Nearby

Air Quality

  Air Quality AQ Index Pollutant
Not available.

Snow Depth

Station Depth Elevation

Earthquake Activity

City Distance Mag. Time & Date
Minimum magnitude displayed is 2.5.

Coastal Water Temperatures

Place Temperature

Stations

Nearby Weather Stations

Station Location Temp. Windchill Dew Point Humidity Wind Precip. Elev Updated Type
                   

Watches & Warnings

Special Statement
Issued: 7:18 AM EDT Jul. 26, 2017 – National Weather Service

Patchy dense fog was occurring early this morning across the
interior valleys of Orange and Putnam counties in New York, and
also in the river valleys of southern Connecticut, with
visibilities less than 1/4 mile in spots.

If traveling in these areas, be alert for rapidly changing
visibilities especially near small rivers, lakes, and streams,
use low beam headlights or fog lamps instead of high beam
headlights in fog, and allow for extra breaking distance.

The fog should dissipate by about 9 am.